createdAt,value
2019-04-30T00:00:41.855Z,1024.6762
2019-04-30T00:00:55.335Z,1024.6622
2019-04-30T00:01:42.070Z,1024.6704
2019-04-30T00:01:55.494Z,1024.6865
2019-04-30T00:02:42.230Z,1024.6674
2019-04-30T00:03:55.615Z,1024.6687
2019-04-30T00:04:54.917Z,1024.623
2019-04-30T00:06:41.892Z,1024.6641
2019-04-30T00:06:55.595Z,1024.6413
2019-04-30T00:07:42.063Z,1024.6298
2019-04-30T00:07:54.915Z,1024.6351
2019-04-30T00:08:42.232Z,1024.625
2019-04-30T00:09:53.869Z,1024.595
2019-04-30T00:10:55.421Z,1024.6164
2019-04-30T00:11:55.734Z,1024.6285
2019-04-30T00:12:41.812Z,1024.5972
2019-04-30T00:12:55.403Z,1024.6088
2019-04-30T00:13:42.008Z,1024.6049
2019-04-30T00:13:55.212Z,1024.6053
2019-04-30T00:14:42.212Z,1024.569
2019-04-30T00:15:58.482Z,1024.5999
2019-04-30T00:16:55.047Z,1024.5986
2019-04-30T00:17:58.407Z,1024.5821
2019-04-30T00:18:53.224Z,1024.5737
2019-04-30T00:19:42.107Z,1024.5601
2019-04-30T00:20:55.173Z,1024.5338
2019-04-30T00:21:55.049Z,1024.5522
2019-04-30T00:22:54.973Z,1024.5289
2019-04-30T00:23:42.794Z,1024.5357
2019-04-30T00:24:44.730Z,1024.5526
2019-04-30T00:25:42.178Z,1024.4821
2019-04-30T00:26:55.010Z,1024.4973
2019-04-30T00:27:53.326Z,1024.5124
2019-04-30T00:28:52.501Z,1024.5219
2019-04-30T00:30:05.318Z,1024.5357
2019-04-30T00:30:51.883Z,1024.5111
2019-04-30T00:31:05.457Z,1024.5258
2019-04-30T00:31:52.047Z,1024.4899
2019-04-30T00:32:04.929Z,1024.4837
2019-04-30T00:32:52.225Z,1024.4854
2019-04-30T00:34:04.912Z,1024.5249
2019-04-30T00:35:03.434Z,1024.4808
2019-04-30T00:36:04.828Z,1024.4779
2019-04-30T00:37:07.142Z,1024.5101
2019-04-30T00:38:04.912Z,1024.5266
2019-04-30T00:39:07.056Z,1024.4821
2019-04-30T00:40:05.479Z,1024.5308
2019-04-30T00:40:51.930Z,1024.5209
2019-04-30T00:41:06.674Z,1024.4608
2019-04-30T00:41:52.066Z,1024.4831
2019-04-30T00:42:04.900Z,1024.5177
2019-04-30T00:42:52.211Z,1024.4526
2019-04-30T00:44:05.279Z,1024.487
2019-04-30T00:45:04.635Z,1024.4482
2019-04-30T00:46:05.002Z,1024.4666
2019-04-30T00:46:51.922Z,1024.4538
2019-04-30T00:47:04.815Z,1024.4406
2019-04-30T00:47:52.095Z,1024.4558
2019-04-30T00:49:09.010Z,1024.4393
2019-04-30T00:50:04.685Z,1024.4364
2019-04-30T00:51:07.344Z,1024.4643
2019-04-30T00:52:05.122Z,1024.456
2019-04-30T00:52:51.909Z,1024.461
2019-04-30T00:53:05.778Z,1024.4412
2019-04-30T00:53:52.541Z,1024.4837
2019-04-30T00:54:05.621Z,1024.4445
2019-04-30T00:54:52.260Z,1024.456
2019-04-30T00:56:03.282Z,1024.4858
2019-04-30T00:57:04.192Z,1024.4696
2019-04-30T00:58:02.622Z,1024.4847
2019-04-30T00:59:15.068Z,1024.4387
2019-04-30T01:00:01.967Z,1024.462
2019-04-30T01:00:17.652Z,1024.4765
2019-04-30T01:01:04.783Z,1024.4488
2019-04-30T01:02:02.333Z,1024.4113
2019-04-30T01:03:13.342Z,1024.4111
2019-04-30T01:04:12.519Z,1024.4208
2019-04-30T01:05:25.440Z,1024.4239
2019-04-30T01:06:11.870Z,1024.4123
2019-04-30T01:06:28.245Z,1024.3876
2019-04-30T01:07:12.035Z,1024.4074
2019-04-30T01:07:23.874Z,1024.3995
2019-04-30T01:08:25.216Z,1024.3886
2019-04-30T01:09:12.365Z,1024.3659
2019-04-30T01:10:24.592Z,1024.3251
2019-04-30T01:11:25.017Z,1024.3679
2019-04-30T01:12:11.960Z,1024.3551
2019-04-30T01:12:29.565Z,1024.3583
2019-04-30T01:13:12.203Z,1024.3291
2019-04-30T01:14:27.044Z,1024.359
2019-04-30T01:15:23.273Z,1024.3951
2019-04-30T01:16:23.559Z,1024.3836
2019-04-30T01:17:22.726Z,1024.3692
2019-04-30T01:18:23.494Z,1024.3803
2019-04-30T01:19:29.845Z,1024.3951
2019-04-30T01:20:23.963Z,1024.3638
2019-04-30T01:21:22.388Z,1024.3442
2019-04-30T01:22:33.446Z,1024.3566
2019-04-30T01:23:32.641Z,1024.3143
2019-04-30T01:24:31.866Z,1024.3518
2019-04-30T01:24:43.651Z,1024.3386
2019-04-30T01:25:43.083Z,1024.3186
2019-04-30T01:26:43.004Z,1024.2873
2019-04-30T01:27:45.524Z,1024.3397
2019-04-30T01:28:42.387Z,1024.2852
2019-04-30T01:29:53.392Z,1024.2771
2019-04-30T01:30:53.815Z,1024.2933
2019-04-30T01:31:52.779Z,1024.2471
2019-04-30T01:32:56.535Z,1024.2666
2019-04-30T01:33:52.166Z,1024.2353
2019-04-30T01:35:03.179Z,1024.2774
2019-04-30T01:36:03.973Z,1024.2757
2019-04-30T01:37:02.545Z,1024.1942
2019-04-30T01:38:13.576Z,1024.2518
2019-04-30T01:39:12.761Z,1024.2205
2019-04-30T01:40:13.838Z,1024.2337
2019-04-30T01:41:12.101Z,1024.2794
2019-04-30T01:42:23.142Z,1024.2712
2019-04-30T01:43:30.368Z,1024.212
2019-04-30T01:44:22.486Z,1024.2268
2019-04-30T01:45:33.538Z,1024.2448
2019-04-30T01:46:32.715Z,1024.1741
2019-04-30T01:47:31.949Z,1024.2037
2019-04-30T01:47:43.787Z,1024.2774
2019-04-30T01:48:43.521Z,1024.2001
2019-04-30T01:49:44.734Z,1024.2607
2019-04-30T01:50:42.303Z,1024.2163
2019-04-30T01:51:57.240Z,1024.185
2019-04-30T01:52:53.564Z,1024.206
2019-04-30T01:53:52.704Z,1024.1811
2019-04-30T01:54:51.890Z,1024.1761
2019-04-30T01:55:03.730Z,1024.2209
2019-04-30T01:56:02.947Z,1024.1834
2019-04-30T01:57:02.133Z,1024.1633
2019-04-30T01:58:13.185Z,1024.1472
2019-04-30T01:59:12.390Z,1024.1715
2019-04-30T02:00:23.432Z,1024.1635
2019-04-30T02:01:22.632Z,1024.1524
2019-04-30T02:02:21.826Z,1024.1445
2019-04-30T02:02:33.659Z,1024.1738
2019-04-30T02:03:32.870Z,1024.1301
2019-04-30T02:04:32.064Z,1024.0975
2019-04-30T02:04:43.900Z,1024.1481
2019-04-30T02:05:43.096Z,1024.1126
2019-04-30T02:06:42.285Z,1024.0981
2019-04-30T02:07:53.294Z,1024.1409
2019-04-30T02:08:52.494Z,1024.1643
2019-04-30T02:10:03.553Z,1024.1553
2019-04-30T02:10:51.896Z,1024.1406
2019-04-30T02:11:03.731Z,1024.134
2019-04-30T02:12:02.922Z,1024.1389
2019-04-30T02:13:02.171Z,1024.1257
2019-04-30T02:14:13.188Z,1024.1468
2019-04-30T02:15:12.377Z,1024.0847
2019-04-30T02:16:23.434Z,1024.0894
2019-04-30T02:17:22.626Z,1024.1126
2019-04-30T02:18:21.852Z,1024.1501
2019-04-30T02:18:33.720Z,1024.1037
2019-04-30T02:19:32.918Z,1024.1123
2019-04-30T02:20:32.127Z,1024.153
2019-04-30T02:21:43.154Z,1024.0548
2019-04-30T02:22:42.336Z,1024.0727
2019-04-30T02:23:53.389Z,1024.0662
2019-04-30T02:24:52.610Z,1024.0511
2019-04-30T02:26:51.959Z,1024.0695
2019-04-30T02:27:03.802Z,1024.055
2019-04-30T02:28:02.987Z,1024.0268
2019-04-30T02:29:02.215Z,1023.9846
2019-04-30T02:30:13.251Z,1024.001
2019-04-30T02:31:12.460Z,1023.9813
2019-04-30T02:32:23.490Z,1024.0218
2019-04-30T02:33:22.687Z,1024.0302
2019-04-30T02:34:22.352Z,1024.0389
2019-04-30T02:34:33.733Z,1024.0484
2019-04-30T02:35:32.919Z,1024.0017
2019-04-30T02:36:32.126Z,1024.0083
2019-04-30T02:37:43.446Z,1024.0057
2019-04-30T02:38:43.307Z,1024.0537
2019-04-30T02:39:42.482Z,1024.0408
2019-04-30T02:40:53.543Z,1024.0352
2019-04-30T02:41:52.729Z,1024.0892
2019-04-30T02:42:51.907Z,1024.0174
2019-04-30T02:43:03.747Z,1024.0467
2019-04-30T02:44:02.930Z,1024.0582
2019-04-30T02:45:03.680Z,1024.0618
2019-04-30T02:46:02.333Z,1024.0671
2019-04-30T02:47:13.380Z,1024.0473
2019-04-30T02:48:12.549Z,1024.074
2019-04-30T02:49:23.571Z,1024.0205
2019-04-30T02:50:22.771Z,1024.0479
2019-04-30T02:51:22.842Z,1024.0397
2019-04-30T02:52:22.146Z,1024.0131
2019-04-30T02:53:33.158Z,1023.9819
2019-04-30T02:54:32.396Z,1023.9654
2019-04-30T02:55:43.451Z,1023.9213
2019-04-30T02:56:42.640Z,1023.9411
2019-04-30T02:57:41.820Z,1023.8954
2019-04-30T02:57:53.660Z,1023.9201
2019-04-30T02:58:52.833Z,1023.9252
2019-04-30T02:59:52.046Z,1023.8845
2019-04-30T03:00:03.889Z,1023.8993
2019-04-30T03:01:03.073Z,1023.947
2019-04-30T03:02:02.286Z,1023.9286
2019-04-30T03:03:13.306Z,1023.8635
2019-04-30T03:04:12.583Z,1023.8322
2019-04-30T03:05:23.599Z,1023.8293
2019-04-30T03:06:23.628Z,1023.7714
2019-04-30T03:07:22.942Z,1023.8154
2019-04-30T03:08:22.120Z,1023.8862
2019-04-30T03:09:33.168Z,1023.7227
2019-04-30T03:10:32.354Z,1023.7628
2019-04-30T03:11:43.355Z,1023.7493
2019-04-30T03:12:42.534Z,1023.7514
2019-04-30T03:13:53.633Z,1023.7615
2019-04-30T03:14:52.811Z,1023.7636
2019-04-30T03:15:51.975Z,1023.7931
2019-04-30T03:16:03.809Z,1023.7966
2019-04-30T03:17:03.002Z,1023.8276
2019-04-30T03:18:02.191Z,1023.7569
2019-04-30T03:19:13.264Z,1023.8457
2019-04-30T03:20:27.665Z,1023.8013
2019-04-30T03:21:12.611Z,1023.7438
2019-04-30T03:22:23.626Z,1023.7944
2019-04-30T03:23:22.824Z,1023.732
2019-04-30T03:24:22.049Z,1023.7707
2019-04-30T03:24:33.880Z,1023.7573
2019-04-30T03:25:33.217Z,1023.7803
2019-04-30T03:26:32.425Z,1023.7507
2019-04-30T03:27:43.520Z,1023.7521
2019-04-30T03:28:42.850Z,1023.7573
2019-04-30T03:29:42.032Z,1023.7082
2019-04-30T03:29:53.850Z,1023.676
2019-04-30T03:30:57.394Z,1023.7043
2019-04-30T03:31:53.291Z,1023.7279
2019-04-30T03:32:56.727Z,1023.7246
2019-04-30T03:33:52.770Z,1023.7004
2019-04-30T03:34:52.270Z,1023.7249
2019-04-30T03:35:03.885Z,1023.6941
2019-04-30T03:36:03.132Z,1023.6977
2019-04-30T03:37:02.398Z,1023.6651
2019-04-30T03:38:13.309Z,1023.7118
2019-04-30T03:39:12.537Z,1023.6773
2019-04-30T03:40:13.099Z,1023.6279
2019-04-30T03:41:12.084Z,1023.697
2019-04-30T03:41:23.917Z,1023.6871
2019-04-30T03:42:23.105Z,1023.674
2019-04-30T03:43:22.293Z,1023.741
2019-04-30T03:44:33.381Z,1023.6493
2019-04-30T03:45:32.590Z,1023.6681
2019-04-30T03:46:43.661Z,1023.6601
2019-04-30T03:47:43.135Z,1023.6456
2019-04-30T03:48:42.030Z,1023.6983
2019-04-30T03:48:53.896Z,1023.6735
2019-04-30T03:49:53.168Z,1023.6592
2019-04-30T03:50:56.547Z,1023.6578
2019-04-30T03:51:52.686Z,1023.6575
2019-04-30T03:52:51.915Z,1023.6618
2019-04-30T03:53:03.761Z,1023.6848
2019-04-30T03:54:03.015Z,1023.6828
2019-04-30T03:55:02.812Z,1023.6105
2019-04-30T03:56:13.317Z,1023.6681
2019-04-30T03:57:12.556Z,1023.6036
2019-04-30T03:58:23.582Z,1023.6023
2019-04-30T03:59:22.803Z,1023.6198
2019-04-30T04:00:22.027Z,1023.6115
2019-04-30T04:00:33.865Z,1023.6246
2019-04-30T04:01:33.214Z,1023.6049
2019-04-30T04:02:32.453Z,1023.6076
2019-04-30T04:03:43.525Z,1023.6848
2019-04-30T04:04:42.746Z,1023.6174
2019-04-30T04:05:41.994Z,1023.6112
2019-04-30T04:05:53.842Z,1023.6043
2019-04-30T04:06:53.162Z,1023.6535
2019-04-30T04:07:52.957Z,1023.6174
2019-04-30T04:09:03.393Z,1023.6589
2019-04-30T04:10:02.588Z,1023.7
2019-04-30T04:11:13.610Z,1023.6611
2019-04-30T04:12:12.905Z,1023.6809
2019-04-30T04:13:12.169Z,1023.7302
2019-04-30T04:14:23.269Z,1023.7321
2019-04-30T04:15:22.441Z,1023.6964
2019-04-30T04:16:33.527Z,1023.716
2019-04-30T04:17:32.799Z,1023.7608
2019-04-30T04:18:32.011Z,1023.7413
2019-04-30T04:18:43.844Z,1023.7676
2019-04-30T04:19:43.066Z,1023.7285
2019-04-30T04:20:42.759Z,1023.7531
2019-04-30T04:21:53.240Z,1023.7712
2019-04-30T04:22:52.471Z,1023.7235
2019-04-30T04:24:03.527Z,1023.7824
2019-04-30T04:25:02.722Z,1023.794
2019-04-30T04:26:01.902Z,1023.7923
2019-04-30T04:26:13.739Z,1023.8367
2019-04-30T04:27:12.949Z,1023.7857
2019-04-30T04:28:12.158Z,1023.8413
2019-04-30T04:29:23.183Z,1023.866
2019-04-30T04:30:22.385Z,1023.8462
2019-04-30T04:31:33.409Z,1023.8378
2019-04-30T04:32:32.625Z,1023.8462
2019-04-30T04:33:31.823Z,1023.8709
2019-04-30T04:33:43.663Z,1023.8676
2019-04-30T04:34:44.958Z,1023.838
2019-04-30T04:35:43.161Z,1023.8479
2019-04-30T04:36:43.294Z,1023.8429
2019-04-30T04:37:42.512Z,1023.8176
2019-04-30T04:38:53.548Z,1023.8492
2019-04-30T04:39:52.740Z,1023.8117
2019-04-30T04:40:51.959Z,1023.8413
2019-04-30T04:41:03.799Z,1023.8643
2019-04-30T04:42:02.982Z,1023.8758
2019-04-30T04:43:02.190Z,1023.8317
2019-04-30T04:44:02.407Z,1023.8775
2019-04-30T04:45:13.430Z,1023.8485
2019-04-30T04:46:12.635Z,1023.863
2019-04-30T04:47:12.015Z,1023.9172
2019-04-30T04:47:23.676Z,1023.8563
2019-04-30T04:48:23.382Z,1023.8482
2019-04-30T04:49:22.102Z,1023.8295
2019-04-30T04:50:33.143Z,1023.8768
2019-04-30T04:51:38.323Z,1023.8831
2019-04-30T04:52:32.620Z,1023.8499
2019-04-30T04:53:32.787Z,1023.8532
2019-04-30T04:54:31.974Z,1023.8808
2019-04-30T04:54:43.808Z,1023.8627
2019-04-30T04:55:42.992Z,1023.8646
2019-04-30T04:56:42.190Z,1023.8881
2019-04-30T04:57:53.217Z,1023.8873
2019-04-30T04:58:52.396Z,1023.8807
2019-04-30T04:59:52.361Z,1023.8761
2019-04-30T05:01:03.433Z,1023.9011
2019-04-30T05:02:02.624Z,1023.932
2019-04-30T05:03:01.811Z,1023.9087
2019-04-30T05:03:13.705Z,1023.912
2019-04-30T05:04:12.890Z,1023.9212
2019-04-30T05:05:13.092Z,1023.9354
2019-04-30T05:06:12.284Z,1023.9206
2019-04-30T05:07:23.302Z,1023.9337
2019-04-30T05:08:22.567Z,1023.8962
2019-04-30T05:09:33.606Z,1023.9154
2019-04-30T05:10:32.806Z,1023.8792
2019-04-30T05:11:31.993Z,1023.8838
2019-04-30T05:11:43.828Z,1023.9312
2019-04-30T05:12:43.040Z,1023.8881
2019-04-30T05:13:42.563Z,1023.9006
2019-04-30T05:14:53.587Z,1023.872
2019-04-30T05:15:52.802Z,1023.8499
2019-04-30T05:16:52.016Z,1023.9204
2019-04-30T05:17:03.852Z,1023.8434
2019-04-30T05:18:03.051Z,1023.8922
2019-04-30T05:19:02.250Z,1023.8471
2019-04-30T05:20:13.334Z,1023.8797
2019-04-30T05:21:12.571Z,1023.9073
2019-04-30T05:22:23.574Z,1023.879
2019-04-30T05:23:22.771Z,1023.8902
2019-04-30T05:24:22.011Z,1023.9004
2019-04-30T05:24:33.866Z,1023.9099
2019-04-30T05:25:33.216Z,1023.8984
2019-04-30T05:26:32.431Z,1023.9004
2019-04-30T05:27:43.555Z,1023.9156
2019-04-30T05:28:42.757Z,1023.9218
2019-04-30T05:29:41.973Z,1023.8958
2019-04-30T05:29:53.819Z,1023.9251
2019-04-30T05:31:53.312Z,1023.9323
2019-04-30T05:32:52.522Z,1023.9623
2019-04-30T05:34:06.234Z,1023.9379
2019-04-30T05:34:52.022Z,1023.9757
2019-04-30T05:35:03.835Z,1023.9695
2019-04-30T05:36:03.121Z,1023.9741
2019-04-30T05:37:02.322Z,1023.9564
2019-04-30T05:38:13.346Z,1023.9955
2019-04-30T05:39:12.548Z,1023.9852
2019-04-30T05:40:11.846Z,1024.0195
2019-04-30T05:40:23.684Z,1024.0046
2019-04-30T05:41:23.186Z,1024.0054
2019-04-30T05:42:23.599Z,1023.957
2019-04-30T05:43:22.879Z,1023.9501
2019-04-30T05:44:23.177Z,1023.9823
2019-04-30T05:45:22.454Z,1023.9659
2019-04-30T05:46:21.855Z,1024.0001
2019-04-30T05:46:33.752Z,1023.9804
2019-04-30T05:47:33.084Z,1024.007
2019-04-30T05:48:32.545Z,1024.0051
2019-04-30T05:49:31.908Z,1024.028
2019-04-30T05:49:43.789Z,1024.0166
2019-04-30T05:50:43.099Z,1023.9807
2019-04-30T05:51:52.746Z,1023.9807
2019-04-30T05:52:42.566Z,1023.9915
2019-04-30T05:53:53.594Z,1024.0156
2019-04-30T05:54:52.761Z,1023.9951
2019-04-30T05:55:51.974Z,1024.0257
2019-04-30T05:56:03.837Z,1024.0603
2019-04-30T05:57:03.029Z,1024.0501
2019-04-30T05:58:02.229Z,1024.0777
2019-04-30T05:59:02.408Z,1024.0656
2019-04-30T06:00:13.559Z,1024.0915
2019-04-30T06:01:12.782Z,1024.1505
2019-04-30T06:02:11.964Z,1024.0994
2019-04-30T06:02:23.798Z,1024.127
2019-04-30T06:03:28.047Z,1024.1
2019-04-30T06:04:23.190Z,1024.0849
2019-04-30T06:05:22.528Z,1024.1326
2019-04-30T06:06:33.742Z,1024.1767
2019-04-30T06:07:32.780Z,1024.0977
2019-04-30T06:08:31.950Z,1024.0927
2019-04-30T06:08:43.819Z,1024.102
2019-04-30T06:09:42.989Z,1024.1197
2019-04-30T06:10:42.314Z,1024.1162
2019-04-30T06:11:53.349Z,1024.0805
2019-04-30T06:12:52.554Z,1024.1157
2019-04-30T06:14:03.576Z,1024.1083
2019-04-30T06:15:02.775Z,1024.1044
2019-04-30T06:16:02.055Z,1024.1448
2019-04-30T06:16:13.896Z,1024.1248
2019-04-30T06:17:13.091Z,1024.1406
2019-04-30T06:18:13.943Z,1024.0925
2019-04-30T06:19:12.449Z,1024.1329
2019-04-30T06:20:23.464Z,1024.1411
2019-04-30T06:21:22.720Z,1024.1694
2019-04-30T06:22:21.921Z,1024.1795
2019-04-30T06:22:33.767Z,1024.1923
2019-04-30T06:23:32.960Z,1024.2073
2019-04-30T06:24:32.156Z,1024.1707
2019-04-30T06:25:56.064Z,1024.1762
2019-04-30T06:26:43.481Z,1024.1917
2019-04-30T06:27:42.662Z,1024.1761
2019-04-30T06:28:41.850Z,1024.213
2019-04-30T06:28:53.691Z,1024.1741
2019-04-30T06:29:52.914Z,1024.1622
2019-04-30T06:30:52.163Z,1024.199
2019-04-30T06:32:03.185Z,1024.2202
2019-04-30T06:33:02.372Z,1024.1772
2019-04-30T06:34:13.390Z,1024.1745
2019-04-30T06:35:12.587Z,1024.1741
2019-04-30T06:36:11.866Z,1024.1915
2019-04-30T06:36:23.701Z,1024.2376
2019-04-30T06:37:22.884Z,1024.2102
2019-04-30T06:38:22.055Z,1024.1818
2019-04-30T06:38:33.905Z,1024.2028
2019-04-30T06:39:33.100Z,1024.1976
2019-04-30T06:40:32.294Z,1024.205
2019-04-30T06:41:43.341Z,1024.2534
2019-04-30T06:42:42.515Z,1024.192
2019-04-30T06:43:53.557Z,1024.2103
2019-04-30T06:44:52.734Z,1024.2524
2019-04-30T06:45:51.925Z,1024.2619
2019-04-30T06:46:03.759Z,1024.2097
2019-04-30T06:47:02.978Z,1024.3018
2019-04-30T06:48:02.286Z,1024.289
2019-04-30T06:49:13.297Z,1024.3298
2019-04-30T06:50:12.519Z,1024.2807
2019-04-30T06:51:23.539Z,1024.3084
2019-04-30T06:52:23.576Z,1024.3002
2019-04-30T06:53:22.917Z,1024.2879
2019-04-30T06:54:22.111Z,1024.3115
2019-04-30T06:55:33.134Z,1024.3098
2019-04-30T06:56:32.380Z,1024.2963
2019-04-30T06:57:43.412Z,1024.3273
2019-04-30T06:58:42.586Z,1024.3247
2019-04-30T06:59:41.827Z,1024.3135
2019-04-30T06:59:53.670Z,1024.3461
2019-04-30T07:00:52.852Z,1024.3319
2019-04-30T07:01:52.150Z,1024.3192
2019-04-30T07:03:03.264Z,1024.2987
2019-04-30T07:04:02.445Z,1024.3366
2019-04-30T07:05:13.464Z,1024.3471
2019-04-30T07:06:12.641Z,1024.3006
2019-04-30T07:07:14.240Z,1024.3162
2019-04-30T07:08:12.218Z,1024.3139
2019-04-30T07:08:35.543Z,1024.3115
2019-04-30T07:09:12.154Z,1024.2974
2019-04-30T07:10:23.144Z,1024.3104
2019-04-30T07:11:22.320Z,1024.319
2019-04-30T07:12:34.017Z,1024.3076
2019-04-30T07:13:32.562Z,1024.2952
2019-04-30T07:14:43.604Z,1024.2913
2019-04-30T07:15:42.797Z,1024.321
2019-04-30T07:16:42.989Z,1024.3173
2019-04-30T07:17:42.174Z,1024.2926
2019-04-30T07:18:53.213Z,1024.2852
2019-04-30T07:19:56.679Z,1024.3017
2019-04-30T07:20:53.564Z,1024.3117
2019-04-30T07:21:52.721Z,1024.3217
2019-04-30T07:22:58.767Z,1024.3204
2019-04-30T07:23:52.095Z,1024.3142
2019-04-30T07:24:52.185Z,1024.3242
2019-04-30T07:26:03.172Z,1024.2741
2019-04-30T07:27:02.808Z,1024.3143
2019-04-30T07:28:13.515Z,1024.2832
2019-04-30T07:29:12.668Z,1024.3092
2019-04-30T07:30:11.848Z,1024.2889
2019-04-30T07:30:23.692Z,1024.2918
2019-04-30T07:31:22.874Z,1024.314
2019-04-30T07:32:22.067Z,1024.3201
2019-04-30T07:32:33.904Z,1024.3347
2019-04-30T07:33:33.103Z,1024.3347
2019-04-30T07:34:36.740Z,1024.3701
2019-04-30T07:35:32.525Z,1024.3465
2019-04-30T07:36:49.048Z,1024.3536
2019-04-30T07:37:31.843Z,1024.333
2019-04-30T07:37:43.678Z,1024.2867
2019-04-30T07:38:49.562Z,1024.3184
2019-04-30T07:39:43.058Z,1024.2589
2019-04-30T07:40:42.266Z,1024.3005
2019-04-30T07:41:53.292Z,1024.3404
2019-04-30T07:42:52.474Z,1024.3153
2019-04-30T07:44:03.546Z,1024.3391
2019-04-30T07:45:02.765Z,1024.356
2019-04-30T07:46:02.946Z,1024.3425
2019-04-30T07:47:02.197Z,1024.3913
2019-04-30T07:48:13.154Z,1024.357
2019-04-30T07:49:12.390Z,1024.3653
2019-04-30T07:50:23.885Z,1024.3271
2019-04-30T07:51:23.197Z,1024.3483
2019-04-30T07:52:23.261Z,1024.3358
2019-04-30T07:53:21.906Z,1024.367
2019-04-30T07:53:33.750Z,1024.4005
2019-04-30T07:54:33.003Z,1024.249
2019-04-30T07:55:32.175Z,1024.3046
2019-04-30T07:56:43.217Z,1024.2348
2019-04-30T07:57:42.381Z,1024.2762
2019-04-30T07:58:53.410Z,1024.27
2019-04-30T07:59:52.690Z,1024.2662
2019-04-30T08:00:56.100Z,1024.2596
2019-04-30T08:02:03.925Z,1024.2506
2019-04-30T08:02:52.216Z,1024.2884
2019-04-30T08:04:03.235Z,1024.2999
2019-04-30T08:05:02.464Z,1024.3208
2019-04-30T08:06:13.519Z,1024.3063
2019-04-30T08:07:12.790Z,1024.2777
2019-04-30T08:08:20.745Z,1024.3059
2019-04-30T08:09:12.088Z,1024.3184
2019-04-30T08:09:23.914Z,1024.2913
2019-04-30T08:10:23.103Z,1024.2963
2019-04-30T08:11:25.410Z,1024.2705
2019-04-30T08:12:29.888Z,1024.2861
2019-04-30T08:13:23.035Z,1024.2938
2019-04-30T08:14:33.621Z,1024.3013
2019-04-30T08:15:32.827Z,1024.2836
2019-04-30T08:16:32.120Z,1024.2941
2019-04-30T08:17:43.150Z,1024.3247
2019-04-30T08:18:42.315Z,1024.3804
2019-04-30T08:19:53.350Z,1024.3032
2019-04-30T08:20:52.551Z,1024.3696
2019-04-30T08:22:03.596Z,1024.3623
2019-04-30T08:23:13.159Z,1024.4061
2019-04-30T08:23:52.131Z,1024.3542
2019-04-30T08:25:03.148Z,1024.3881
2019-04-30T08:26:02.330Z,1024.3742
2019-04-30T08:27:13.408Z,1024.393
2019-04-30T08:28:12.607Z,1024.3699
2019-04-30T08:29:23.630Z,1024.4039
2019-04-30T08:30:26.620Z,1024.4058
2019-04-30T08:31:23.004Z,1024.3544
2019-04-30T08:32:22.221Z,1024.3784
2019-04-30T08:33:22.524Z,1024.3754
2019-04-30T08:34:33.564Z,1024.3753
2019-04-30T08:35:32.770Z,1024.3947
2019-04-30T08:36:33.154Z,1024.3748
2019-04-30T08:37:32.119Z,1024.4085
2019-04-30T08:38:43.337Z,1024.4091
2019-04-30T08:39:42.560Z,1024.4207
2019-04-30T08:40:58.028Z,1024.4666
2019-04-30T08:41:41.940Z,1024.4533
2019-04-30T08:41:53.777Z,1024.4129
2019-04-30T08:42:52.961Z,1024.4033
2019-04-30T08:43:52.186Z,1024.3787
2019-04-30T08:44:52.359Z,1024.4389
2019-04-30T08:46:03.362Z,1024.4318
2019-04-30T08:47:02.552Z,1024.3918
2019-04-30T08:48:13.601Z,1024.3835
2019-04-30T08:49:13.134Z,1024.3797
2019-04-30T08:50:12.089Z,1024.3601
2019-04-30T08:50:23.885Z,1024.3511
2019-04-30T08:51:23.066Z,1024.3039
2019-04-30T08:52:22.267Z,1024.3665
2019-04-30T08:53:34.002Z,1024.3676
2019-04-30T08:54:34.629Z,1024.4044
2019-04-30T08:55:32.700Z,1024.3782
2019-04-30T08:56:31.873Z,1024.3348
2019-04-30T08:56:43.708Z,1024.3995
2019-04-30T08:57:42.899Z,1024.3679
2019-04-30T08:58:42.067Z,1024.3787
2019-04-30T08:59:42.306Z,1024.3638
2019-04-30T09:00:53.331Z,1024.3789
2019-04-30T09:01:52.533Z,1024.4074
2019-04-30T09:03:51.948Z,1024.424
2019-04-30T09:04:03.790Z,1024.4136
2019-04-30T09:05:03.536Z,1024.4058
2019-04-30T09:06:02.732Z,1024.4265
2019-04-30T09:07:01.916Z,1024.3813
2019-04-30T09:07:13.753Z,1024.3465
2019-04-30T09:08:12.954Z,1024.4047
2019-04-30T09:09:12.167Z,1024.385
2019-04-30T09:10:23.246Z,1024.3701
2019-04-30T09:11:29.471Z,1024.4061
2019-04-30T09:12:22.601Z,1024.3399
2019-04-30T09:13:33.645Z,1024.342
2019-04-30T09:14:32.893Z,1024.3295
2019-04-30T09:15:32.093Z,1024.3106
2019-04-30T09:16:43.246Z,1024.3063
2019-04-30T09:17:42.360Z,1024.309
2019-04-30T09:18:53.337Z,1024.2858
2019-04-30T09:19:52.522Z,1024.2883
2019-04-30T09:21:06.340Z,1024.2989
2019-04-30T09:21:51.963Z,1024.3175
2019-04-30T09:22:11.045Z,1024.3416
2019-04-30T09:22:52.141Z,1024.3275
2019-04-30T09:24:03.155Z,1024.295
2019-04-30T09:25:02.333Z,1024.3128
2019-04-30T09:26:13.398Z,1024.3416
2019-04-30T09:27:12.608Z,1024.2186
2019-04-30T09:28:23.623Z,1024.3198
2019-04-30T09:29:22.815Z,1024.3082
2019-04-30T09:30:22.008Z,1024.2679
2019-04-30T09:30:33.846Z,1024.2917
2019-04-30T09:31:33.056Z,1024.2192
2019-04-30T09:32:32.315Z,1024.2884
2019-04-30T09:33:43.339Z,1024.2326
2019-04-30T09:34:42.530Z,1024.2459
2019-04-30T09:35:53.560Z,1024.2066
2019-04-30T09:36:52.753Z,1024.2623
2019-04-30T09:37:58.899Z,1024.2468
2019-04-30T09:38:52.210Z,1024.2434
2019-04-30T09:40:14.757Z,1024.2197
2019-04-30T09:41:03.417Z,1024.2416
2019-04-30T09:42:02.604Z,1024.2666
2019-04-30T09:43:01.808Z,1024.2338
2019-04-30T09:43:13.651Z,1024.2331
2019-04-30T09:44:13.022Z,1024.2398
2019-04-30T09:45:12.200Z,1024.2484
2019-04-30T09:46:26.944Z,1024.2351
2019-04-30T09:47:23.414Z,1024.1669
2019-04-30T09:48:22.632Z,1024.2025
2019-04-30T09:49:21.818Z,1024.2021
2019-04-30T09:49:33.662Z,1024.202
2019-04-30T09:50:32.972Z,1024.2379
2019-04-30T09:51:32.474Z,1024.244
2019-04-30T09:51:43.886Z,1024.2158
2019-04-30T09:52:43.379Z,1024.1875
2019-04-30T09:53:42.286Z,1024.2133
2019-04-30T09:54:53.448Z,1024.2211
2019-04-30T09:55:52.517Z,1024.1759
2019-04-30T09:57:03.544Z,1024.2523
2019-04-30T09:58:14.107Z,1024.2149
2019-04-30T09:59:02.919Z,1024.2237
2019-04-30T10:00:02.161Z,1024.2415
2019-04-30T10:01:13.174Z,1024.2774
2019-04-30T10:02:12.368Z,1024.2192
2019-04-30T10:03:23.995Z,1024.2434
2019-04-30T10:04:24.013Z,1024.182
2019-04-30T10:05:22.832Z,1024.2286
2019-04-30T10:06:22.052Z,1024.2601
2019-04-30T10:06:39.472Z,1024.1997
2019-04-30T10:07:22.214Z,1024.1978
2019-04-30T10:08:45.178Z,1024.2301
2019-04-30T10:09:33.449Z,1024.2032
2019-04-30T10:10:32.712Z,1024.2119
2019-04-30T10:11:31.896Z,1024.2062
2019-04-30T10:11:43.735Z,1024.1999
2019-04-30T10:12:42.912Z,1024.207
2019-04-30T10:13:42.086Z,1024.1837
2019-04-30T10:13:53.926Z,1024.1538
2019-04-30T10:14:53.089Z,1024.1412
2019-04-30T10:15:52.315Z,1024.1267
2019-04-30T10:17:03.492Z,1024.1362
2019-04-30T10:18:02.673Z,1024.1417
2019-04-30T10:19:01.870Z,1024.1265
2019-04-30T10:19:15.002Z,1024.1145
2019-04-30T10:20:02.059Z,1024.0932
2019-04-30T10:20:13.898Z,1024.1324
2019-04-30T10:21:13.078Z,1024.0474
2019-04-30T10:22:12.295Z,1024.0642
2019-04-30T10:23:23.318Z,1024.106
2019-04-30T10:24:22.492Z,1024.0584
2019-04-30T10:25:33.516Z,1024.0239
2019-04-30T10:26:32.774Z,1024.0467
2019-04-30T10:27:31.981Z,1024.0202
2019-04-30T10:27:43.786Z,1024.0428
2019-04-30T10:28:42.967Z,1024.0227
2019-04-30T10:29:42.151Z,1024.0528
2019-04-30T10:30:53.197Z,1024.0252
2019-04-30T10:31:53.410Z,1023.9824
2019-04-30T10:32:52.614Z,1024.0533
2019-04-30T10:34:03.632Z,1023.9417
2019-04-30T10:35:02.823Z,1023.9918
2019-04-30T10:36:02.003Z,1023.9504
2019-04-30T10:36:13.864Z,1023.9965